createdAt,value
2022-10-24T00:10:42.507Z,15.5
2022-10-24T00:25:16.381Z,15.2
2022-10-24T00:39:50.001Z,15.1
2022-10-24T00:54:23.496Z,15.1
2022-10-24T01:08:57.418Z,15.1
2022-10-24T01:23:31.771Z,15.3
2022-10-24T01:37:56.830Z,15.3
2022-10-24T01:52:29.823Z,15.3
2022-10-24T02:07:03.850Z,15.2
2022-10-24T02:21:38.181Z,15.4
2022-10-24T02:36:12.204Z,15.2
2022-10-24T02:50:46.869Z,15.4
2022-10-24T03:05:20.745Z,15.4
2022-10-24T03:19:54.743Z,15.6
2022-10-24T03:34:28.992Z,15.6
2022-10-24T04:03:37.243Z,15.7
2022-10-24T04:18:11.873Z,15.8
2022-10-24T04:32:46.553Z,15.6
2022-10-24T05:01:53.254Z,15.3
2022-10-24T05:16:27.419Z,15
2022-10-24T05:30:59.573Z,14.6
2022-10-24T05:45:32.882Z,14.6
2022-10-24T06:00:06.842Z,14.5
2022-10-24T06:14:40.964Z,14.6
2022-10-24T06:29:14.177Z,14.6
2022-10-24T06:43:50.925Z,14.5
2022-10-24T06:58:24.140Z,14.5
2022-10-24T07:12:58.443Z,14.6
2022-10-24T07:27:32.765Z,14.3
2022-10-24T07:42:07.066Z,14.1
2022-10-24T07:56:41.391Z,14.2
2022-10-24T08:11:15.232Z,14.3
2022-10-24T08:25:47.973Z,14.3
2022-10-24T08:40:22.388Z,14.1
2022-10-24T08:54:57.198Z,14
2022-10-24T09:09:29.205Z,14.2
2022-10-24T09:24:04.453Z,13.9
2022-10-24T09:38:38.470Z,13.9
2022-10-24T09:53:13.410Z,13.2
2022-10-24T10:07:48.793Z,13.4
2022-10-24T10:22:21.678Z,13.4
2022-10-24T10:36:56.046Z,13
2022-10-24T10:51:30.658Z,13.3
2022-10-24T11:06:06.131Z,12.8
2022-10-24T11:20:43.644Z,12.3
2022-10-24T11:35:15.650Z,12.4
2022-10-24T11:49:48.771Z,11.8
2022-10-24T12:04:25.833Z,11.9
2022-10-24T12:18:59.121Z,12.3
2022-10-24T12:33:33.699Z,12.2
2022-10-24T12:48:07.129Z,12.8
2022-10-24T13:02:39.081Z,12.5
2022-10-24T13:17:10.701Z,14.6
2022-10-24T13:31:44.253Z,14.7
2022-10-24T13:46:17.326Z,16.1
2022-10-24T14:00:50.498Z,15.9
2022-10-24T14:15:22.692Z,15.5
2022-10-24T14:29:56.922Z,16.2
2022-10-24T14:44:38.840Z,15.8
2022-10-24T14:59:08.601Z,15.7
2022-10-24T15:14:07.143Z,14.8
2022-10-24T15:28:30.273Z,14.6
2022-10-24T15:43:04.139Z,14.3
2022-10-24T15:57:38.672Z,14.2
2022-10-24T16:12:13.121Z,13.7
2022-10-24T16:26:46.382Z,13.9
2022-10-24T16:41:20.338Z,13.5
2022-10-24T16:55:55.064Z,13.5
2022-10-24T17:10:28.787Z,13.4
2022-10-24T17:25:02.767Z,13.5
2022-10-24T17:39:35.352Z,13.5
2022-10-24T17:54:08.767Z,13.9
2022-10-24T18:08:41.385Z,14.1
2022-10-24T18:23:15.211Z,14
2022-10-24T18:37:49.834Z,14
2022-10-24T18:52:23.329Z,13.9
2022-10-24T19:06:58.758Z,14.1
2022-10-24T19:21:32.636Z,14.1
2022-10-24T19:36:06.509Z,14.1
2022-10-24T19:50:40.370Z,14.6
2022-10-24T20:05:13.542Z,15
2022-10-24T20:19:53.055Z,15.1
2022-10-24T20:34:29.972Z,15.1
2022-10-24T20:49:00.380Z,15.1
2022-10-24T21:03:40.640Z,15.2
2022-10-24T21:18:17.215Z,15.2
2022-10-24T21:32:47.562Z,15.1
2022-10-24T21:47:20.504Z,15
2022-10-24T22:01:56.937Z,15
2022-10-24T22:16:35.574Z,14.9
2022-10-24T22:31:12.084Z,15.1
2022-10-24T22:45:42.726Z,15
2022-10-24T23:00:22.832Z,14.9
2022-10-24T23:14:58.025Z,14.9
2022-10-24T23:29:28.044Z,14.9
2022-10-24T23:44:02.142Z,14.9
2022-10-24T23:58:35.991Z,14.7
